Felts Mills, New York
Current Conditions -  °F | °C
As of 6:58 AM on Monday 26 Jan 2015 (Local Time) from KGTB Reporting Station
Clear Clear  
Wind Chill: -21°   Ceiling: Unl
Heat Index: -8°   Visibility: 10mi
Dew Point: -13°   Wind: 6mph
Humidity: 79%   Direction: 130°SE
Pressure: 30.06"   Gusts: NA
Location:  44.02°N, 75.76°W
Report Text: KGTB 261158Z AUTO 13005KT 10SM CLR M22/M25 A3006 RMK AO2 SLPNO T12221249 11190 21228 55003
Loading
Personal Weather Stations






























Interactive Weather Map New forecast layout! Learn more

10-Day Weather Forecast

Advertisements
Track Severe Weather on mobile